createdAt,value
2019-04-25T00:00:27.336Z,66.15
2019-04-25T00:01:27.324Z,66.09
2019-04-25T00:02:27.315Z,66.28
2019-04-25T00:03:27.294Z,66.82
2019-04-25T00:04:27.288Z,66.34
2019-04-25T00:05:27.272Z,66.53
2019-04-25T00:06:27.266Z,66.72
2019-04-25T00:07:27.239Z,66.91
2019-04-25T00:08:27.231Z,67.10
2019-04-25T00:09:27.225Z,67.29
2019-04-25T00:10:27.209Z,66.72
2019-04-25T00:11:27.196Z,67.00
2019-04-25T00:12:27.193Z,66.91
2019-04-25T00:13:27.171Z,67.00
2019-04-25T00:14:27.151Z,67.29
2019-04-25T00:15:27.142Z,67.68
2019-04-25T00:16:27.126Z,67.58
2019-04-25T00:17:27.112Z,66.82
2019-04-25T00:18:27.100Z,67.10
2019-04-25T00:19:27.090Z,67.29
2019-04-25T00:20:27.083Z,67.20
2019-04-25T00:21:27.066Z,66.82
2019-04-25T00:22:27.053Z,66.72
2019-04-25T00:23:27.041Z,66.82
2019-04-25T00:24:27.024Z,66.91
2019-04-25T00:25:27.009Z,67.10
2019-04-25T00:26:26.997Z,67.10
2019-04-25T00:27:26.984Z,66.91
2019-04-25T00:28:26.974Z,67.20
2019-04-25T00:29:26.956Z,67.39
2019-04-25T00:30:26.955Z,67.58
2019-04-25T00:31:26.933Z,67.39
2019-04-25T00:32:26.917Z,67.20
2019-04-25T00:33:26.911Z,66.72
2019-04-25T00:34:26.891Z,66.91
2019-04-25T00:35:26.881Z,66.91
2019-04-25T00:36:26.867Z,66.82
2019-04-25T00:37:26.853Z,66.82
2019-04-25T00:38:26.840Z,67.00
2019-04-25T00:39:26.827Z,67.10
2019-04-25T00:40:26.812Z,67.20
2019-04-25T00:41:26.807Z,67.10
2019-04-25T00:42:26.786Z,66.63
2019-04-25T00:43:26.780Z,66.82
2019-04-25T00:44:26.771Z,66.72
2019-04-25T00:45:26.758Z,66.91
2019-04-25T00:46:26.746Z,67.20
2019-04-25T00:47:26.727Z,67.58
2019-04-25T00:48:26.711Z,66.63
2019-04-25T00:49:26.703Z,67.00
2019-04-25T00:50:26.683Z,66.91
2019-04-25T00:51:26.683Z,67.20
2019-04-25T00:52:26.661Z,66.72
2019-04-25T00:53:26.647Z,66.24
2019-04-25T00:54:26.633Z,65.96
2019-04-25T00:55:28.889Z,66.15
2019-04-25T00:56:26.616Z,66.15
2019-04-25T00:57:26.594Z,66.15
2019-04-25T00:58:26.580Z,65.96
2019-04-25T00:59:26.565Z,65.39
2019-04-25T01:00:26.557Z,65.00
2019-04-25T01:01:26.541Z,65.58
2019-04-25T01:02:26.527Z,65.67
2019-04-25T01:03:26.515Z,65.20
2019-04-25T01:04:26.506Z,65.39
2019-04-25T01:05:26.480Z,65.29
2019-04-25T01:06:26.478Z,65.00
2019-04-25T01:07:26.478Z,64.91
2019-04-25T01:08:26.450Z,64.72
2019-04-25T01:09:26.440Z,64.34
2019-04-25T01:10:26.418Z,64.72
2019-04-25T01:11:26.417Z,64.15
2019-04-25T01:12:26.399Z,64.34
2019-04-25T01:13:26.379Z,64.24
2019-04-25T01:14:26.389Z,64.53
2019-04-25T01:15:26.356Z,64.53
2019-04-25T01:16:26.345Z,64.72
2019-04-25T01:17:26.333Z,64.91
2019-04-25T01:18:27.420Z,64.43
2019-04-25T01:19:26.310Z,64.81
2019-04-25T01:20:26.297Z,65.20
2019-04-25T01:21:26.279Z,64.53
2019-04-25T01:22:26.269Z,64.62
2019-04-25T01:23:26.252Z,64.43
2019-04-25T01:24:26.242Z,65.29
2019-04-25T01:25:38.326Z,65.29
2019-04-25T01:26:26.216Z,65.29
2019-04-25T01:27:26.210Z,65.29
2019-04-25T01:28:26.185Z,65.39
2019-04-25T01:29:26.171Z,65.58
2019-04-25T01:30:26.159Z,65.39
2019-04-25T01:31:26.149Z,65.39
2019-04-25T01:32:26.136Z,65.48
2019-04-25T01:33:26.120Z,66.15
2019-04-25T01:34:26.104Z,65.39
2019-04-25T01:35:26.095Z,65.48
2019-04-25T01:36:26.077Z,65.67
2019-04-25T01:37:26.067Z,65.48
2019-04-25T01:38:26.057Z,65.39
2019-04-25T01:39:26.043Z,65.29
2019-04-25T01:40:26.032Z,65.39
2019-04-25T01:41:26.011Z,65.67
2019-04-25T01:42:26.004Z,65.20
2019-04-25T01:43:25.990Z,65.39
2019-04-25T01:44:25.980Z,65.67
2019-04-25T01:45:25.962Z,65.64
2019-04-25T01:46:25.950Z,65.83
2019-04-25T01:47:25.940Z,65.64
2019-04-25T01:48:25.922Z,65.39
2019-04-25T01:49:25.912Z,65.86
2019-04-25T01:50:25.899Z,65.10
2019-04-25T01:51:25.883Z,65.77
2019-04-25T01:52:25.869Z,65.39
2019-04-25T01:53:25.855Z,65.55
2019-04-25T01:54:25.849Z,65.67
2019-04-25T01:55:25.831Z,65.29
2019-04-25T01:56:25.819Z,64.87
2019-04-25T01:57:25.806Z,64.69
2019-04-25T01:58:25.793Z,64.72
2019-04-25T01:59:25.775Z,63.26
2019-04-25T02:00:25.764Z,62.68
2019-04-25T02:01:25.757Z,62.59
2019-04-25T02:02:25.737Z,63.17
2019-04-25T02:03:27.285Z,63.17
2019-04-25T02:04:25.713Z,63.26
2019-04-25T02:05:25.697Z,63.45
2019-04-25T02:06:25.682Z,62.59
2019-04-25T02:07:25.676Z,62.59
2019-04-25T02:08:25.662Z,62.49
2019-04-25T02:09:25.649Z,62.68
2019-04-25T02:10:25.629Z,61.93
2019-04-25T02:11:25.622Z,62.21
2019-04-25T02:12:25.609Z,63.07
2019-04-25T02:13:25.591Z,63.17
2019-04-25T02:14:25.578Z,63.45
2019-04-25T02:15:25.565Z,63.45
2019-04-25T02:16:25.549Z,63.54
2019-04-25T02:17:25.537Z,62.97
2019-04-25T02:18:25.521Z,63.45
2019-04-25T02:19:25.515Z,64.59
2019-04-25T02:20:25.503Z,64.12
2019-04-25T02:21:25.487Z,64.50
2019-04-25T02:22:25.470Z,64.50
2019-04-25T02:23:25.463Z,64.78
2019-04-25T02:24:25.444Z,64.50
2019-04-25T02:25:25.429Z,64.69
2019-04-25T02:26:25.419Z,64.69
2019-04-25T02:27:25.408Z,63.45
2019-04-25T02:28:25.394Z,63.26
2019-04-25T02:29:25.379Z,63.26
2019-04-25T02:30:25.557Z,63.26
2019-04-25T02:31:25.354Z,63.54
2019-04-25T02:32:25.339Z,63.64
2019-04-25T02:33:25.323Z,63.92
2019-04-25T02:34:25.323Z,64.12
2019-04-25T02:35:26.536Z,64.31
2019-04-25T02:36:25.294Z,64.69
2019-04-25T02:37:25.794Z,64.50
2019-04-25T02:38:25.257Z,64.87
2019-04-25T02:39:25.249Z,64.02
2019-04-25T02:40:25.239Z,64.21
2019-04-25T02:41:25.218Z,64.50
2019-04-25T02:42:25.207Z,64.02
2019-04-25T02:43:25.196Z,63.73
2019-04-25T02:44:25.182Z,63.73
2019-04-25T02:45:25.162Z,63.17
2019-04-25T02:46:25.149Z,63.17
2019-04-25T02:47:25.154Z,63.07
2019-04-25T02:48:25.127Z,62.59
2019-04-25T02:49:34.834Z,62.12
2019-04-25T02:50:25.097Z,62.21
2019-04-25T02:51:25.095Z,61.83
2019-04-25T02:52:25.066Z,61.83
2019-04-25T02:53:25.058Z,61.45
2019-04-25T02:54:25.059Z,61.73
2019-04-25T02:55:31.700Z,61.25
2019-04-25T02:56:31.235Z,60.97
2019-04-25T02:57:25.209Z,59.74
2019-04-25T02:58:24.987Z,58.87
2019-04-25T02:59:25.454Z,58.59
2019-04-25T03:00:25.091Z,57.54
2019-04-25T03:01:26.175Z,57.45
2019-04-25T03:02:24.941Z,57.45
2019-04-25T03:03:24.919Z,56.97
2019-04-25T03:04:24.927Z,56.52
2019-04-25T03:05:25.583Z,56.71
2019-04-25T03:06:25.142Z,56.71
2019-04-25T03:07:25.003Z,56.62
2019-04-25T03:08:24.874Z,56.71
2019-04-25T03:09:25.063Z,56.52
2019-04-25T03:10:26.967Z,56.43
2019-04-25T03:11:24.818Z,56.33
2019-04-25T03:12:30.587Z,56.33
2019-04-25T03:13:24.894Z,56.71
2019-04-25T03:14:26.775Z,56.52
2019-04-25T03:15:24.759Z,57.00
2019-04-25T03:16:25.225Z,56.52
2019-04-25T03:17:24.945Z,56.52
2019-04-25T03:18:24.941Z,55.85
2019-04-25T03:19:26.354Z,55.28
2019-04-25T03:20:24.700Z,55.66
2019-04-25T03:21:25.092Z,55.66
2019-04-25T03:22:26.671Z,55.95
2019-04-25T03:23:24.652Z,56.52
2019-04-25T03:24:25.236Z,57.86
2019-04-25T03:25:24.963Z,58.81
2019-04-25T03:26:24.612Z,60.14
2019-04-25T03:27:25.343Z,60.81
2019-04-25T03:28:24.602Z,61.19
2019-04-25T03:29:24.842Z,61.48
2019-04-25T03:30:25.517Z,60.91
2019-04-25T03:31:27.220Z,61.19
2019-04-25T03:32:27.824Z,60.97
2019-04-25T03:33:25.962Z,61.10
2019-04-25T03:34:25.301Z,61.67
2019-04-25T03:35:24.508Z,61.57
2019-04-25T03:36:24.483Z,60.88
2019-04-25T03:37:24.475Z,61.07
2019-04-25T03:38:24.453Z,60.30
2019-04-25T03:39:26.945Z,60.40
2019-04-25T03:40:24.439Z,60.88
2019-04-25T03:41:24.582Z,60.78
2019-04-25T03:42:24.402Z,60.69
2019-04-25T03:43:24.393Z,60.21
2019-04-25T03:44:25.366Z,58.97
2019-04-25T03:45:24.369Z,57.26
2019-04-25T03:46:24.354Z,56.87
2019-04-25T03:47:24.337Z,56.02
2019-04-25T03:48:25.224Z,55.07
2019-04-25T03:49:24.305Z,55.26
2019-04-25T03:50:24.299Z,54.90
2019-04-25T03:51:24.287Z,54.52
2019-04-25T03:52:24.270Z,54.71
2019-04-25T03:53:24.256Z,54.71
2019-04-25T03:54:24.245Z,54.61
2019-04-25T03:55:24.230Z,54.52
2019-04-25T03:56:24.904Z,54.33
2019-04-25T03:57:24.202Z,53.56
2019-04-25T03:58:24.188Z,53.28
2019-04-25T03:59:24.178Z,53.38
2019-04-25T04:00:24.201Z,53.66
2019-04-25T04:01:25.119Z,54.33
2019-04-25T04:02:24.142Z,54.14
2019-04-25T04:03:24.124Z,53.95
2019-04-25T04:04:24.112Z,53.66
2019-04-25T04:05:24.102Z,53.66
2019-04-25T04:06:24.153Z,53.56
2019-04-25T04:07:24.071Z,53.76
2019-04-25T04:08:24.350Z,53.00
2019-04-25T04:09:24.230Z,53.00
2019-04-25T04:10:24.028Z,52.80
2019-04-25T04:11:24.018Z,52.71
2019-04-25T04:12:24.357Z,52.90
2019-04-25T04:13:24.416Z,53.28
2019-04-25T04:14:24.105Z,53.66
2019-04-25T04:15:25.106Z,53.38
2019-04-25T04:16:23.953Z,53.76
2019-04-25T04:17:23.939Z,53.76
2019-04-25T04:18:26.927Z,53.38
2019-04-25T04:19:24.071Z,53.38
2019-04-25T04:20:23.892Z,53.19
2019-04-25T04:21:23.882Z,53.66
2019-04-25T04:22:24.169Z,53.66
2019-04-25T04:23:23.860Z,53.47
2019-04-25T04:24:25.785Z,53.66
2019-04-25T04:25:23.829Z,54.14
2019-04-25T04:26:23.817Z,53.76
2019-04-25T04:27:24.031Z,53.85
2019-04-25T04:28:23.792Z,54.14
2019-04-25T04:29:25.464Z,53.76
2019-04-25T04:30:24.218Z,53.95
2019-04-25T04:31:23.751Z,54.24
2019-04-25T04:32:24.210Z,54.33
2019-04-25T04:33:31.863Z,54.24
2019-04-25T04:34:23.721Z,53.66
2019-04-25T04:35:23.700Z,53.09
2019-04-25T04:36:23.814Z,52.16
2019-04-25T04:37:23.770Z,52.14
2019-04-25T04:38:24.110Z,52.04
2019-04-25T04:39:23.643Z,52.26
2019-04-25T04:40:24.314Z,52.55
2019-04-25T04:41:23.992Z,53.12
2019-04-25T04:42:23.850Z,52.45
2019-04-25T04:43:23.959Z,52.16
2019-04-25T04:44:24.121Z,52.07
2019-04-25T04:45:23.571Z,52.64
2019-04-25T04:46:23.980Z,52.26
2019-04-25T04:47:23.770Z,52.64
2019-04-25T04:48:23.527Z,52.26
2019-04-25T04:49:23.849Z,52.64
2019-04-25T04:50:25.233Z,52.36
2019-04-25T04:51:23.528Z,53.41
2019-04-25T04:52:25.180Z,52.55
2019-04-25T04:53:23.558Z,52.36
2019-04-25T04:54:23.451Z,52.55
2019-04-25T04:55:23.432Z,52.26
2019-04-25T04:56:25.416Z,52.64
2019-04-25T04:57:32.239Z,52.83
2019-04-25T04:58:25.008Z,53.41
2019-04-25T04:59:24.835Z,53.12
2019-04-25T05:00:24.640Z,53.69
2019-04-25T05:01:24.737Z,54.26
2019-04-25T05:02:24.216Z,54.45
2019-04-25T05:03:24.275Z,54.36
2019-04-25T05:04:25.110Z,53.97
2019-04-25T05:05:24.648Z,54.07
2019-04-25T05:06:23.991Z,54.55
2019-04-25T05:07:23.726Z,54.36
2019-04-25T05:08:24.784Z,54.83
2019-04-25T05:09:23.803Z,54.45
2019-04-25T05:10:23.723Z,55.79
2019-04-25T05:11:25.240Z,55.12
2019-04-25T05:12:24.108Z,55.21
2019-04-25T05:13:24.244Z,55.02
2019-04-25T05:14:23.912Z,54.36
2019-04-25T05:15:24.809Z,54.45
2019-04-25T05:16:23.865Z,55.12
2019-04-25T05:17:23.704Z,55.02
2019-04-25T05:18:36.611Z,54.64
2019-04-25T05:19:23.846Z,55.12
2019-04-25T05:20:24.172Z,54.74
2019-04-25T05:21:23.086Z,55.21
2019-04-25T05:22:24.352Z,55.50
2019-04-25T05:23:24.586Z,55.31
2019-04-25T05:24:24.979Z,55.02
2019-04-25T05:25:24.539Z,55.21
2019-04-25T05:26:24.892Z,55.41
2019-04-25T05:27:35.730Z,55.69
2019-04-25T05:28:24.555Z,55.41
2019-04-25T05:29:24.141Z,54.90
2019-04-25T05:30:23.987Z,54.17
2019-04-25T05:31:25.156Z,54.26
2019-04-25T05:32:24.983Z,54.33
2019-04-25T05:33:24.251Z,54.45
2019-04-25T05:34:24.710Z,53.88
2019-04-25T05:35:24.341Z,54.26
2019-04-25T05:36:23.887Z,54.26
2019-04-25T05:37:24.109Z,54.83
2019-04-25T05:38:24.340Z,55.02
2019-04-25T05:39:24.080Z,54.36
2019-04-25T05:40:24.450Z,54.36
2019-04-25T05:41:24.407Z,54.26
2019-04-25T05:42:24.495Z,54.26
2019-04-25T05:43:24.459Z,53.02
2019-04-25T05:44:24.962Z,52.45
2019-04-25T05:45:23.826Z,52.36
2019-04-25T05:46:23.708Z,52.73
2019-04-25T05:47:25.638Z,52.73
2019-04-25T05:48:25.064Z,53.02
2019-04-25T05:49:24.329Z,53.31
2019-04-25T05:50:24.222Z,53.78
2019-04-25T05:51:23.941Z,54.26
2019-04-25T05:52:24.297Z,54.17
2019-04-25T05:53:24.143Z,53.41
2019-04-25T05:54:24.520Z,53.88
2019-04-25T05:55:24.204Z,52.83
2019-04-25T05:56:24.658Z,52.92
2019-04-25T05:57:23.898Z,53.50
2019-04-25T05:58:24.594Z,53.02
2019-04-25T05:59:22.600Z,53.78
2019-04-25T06:00:24.710Z,54.26
2019-04-25T06:01:22.908Z,54.17
2019-04-25T06:02:24.454Z,54.36
2019-04-25T06:03:24.812Z,54.36
2019-04-25T06:04:24.635Z,54.36
2019-04-25T06:05:23.419Z,53.88
2019-04-25T06:06:23.669Z,53.69
2019-04-25T06:07:24.598Z,54.55
2019-04-25T06:08:24.297Z,54.93
2019-04-25T06:09:24.034Z,54.64
2019-04-25T06:10:22.453Z,54.93
2019-04-25T06:11:23.904Z,54.83
2019-04-25T06:12:23.754Z,54.74
2019-04-25T06:13:23.850Z,54.55
2019-04-25T06:14:24.012Z,53.97
2019-04-25T06:15:24.046Z,53.69
2019-04-25T06:16:24.255Z,54.17
2019-04-25T06:17:24.743Z,54.26
2019-04-25T06:18:24.655Z,54.36
2019-04-25T06:19:24.283Z,53.97
2019-04-25T06:20:23.560Z,52.73
2019-04-25T06:21:23.595Z,52.36
2019-04-25T06:22:24.213Z,52.19
2019-04-25T06:23:22.618Z,52.19
2019-04-25T06:24:24.343Z,51.62
2019-04-25T06:25:24.539Z,52.28
2019-04-25T06:26:30.860Z,52.48
2019-04-25T06:27:23.914Z,51.74
2019-04-25T06:28:23.676Z,52.31
2019-04-25T06:29:23.687Z,53.08
2019-04-25T06:30:22.644Z,53.93
2019-04-25T06:31:24.047Z,52.59
2019-04-25T06:32:23.173Z,50.88
2019-04-25T06:33:24.390Z,50.88
2019-04-25T06:34:22.143Z,50.59
2019-04-25T06:35:24.479Z,50.81
2019-04-25T06:36:22.763Z,50.49
2019-04-25T06:37:24.545Z,49.18
2019-04-25T06:38:24.846Z,46.80
2019-04-25T06:39:22.080Z,45.08
2019-04-25T06:40:23.907Z,43.93
2019-04-25T06:41:22.099Z,43.57
2019-04-25T06:42:23.041Z,43.76
2019-04-25T06:43:24.345Z,42.04
2019-04-25T06:44:24.064Z,42.43
2019-04-25T06:45:22.814Z,43.19
2019-04-25T06:46:22.959Z,43.38
2019-04-25T06:47:22.606Z,43.76
2019-04-25T06:48:23.031Z,42.93
2019-04-25T06:49:24.368Z,41.30
2019-04-25T06:50:23.071Z,41.49
2019-04-25T06:51:22.374Z,41.68
2019-04-25T06:52:24.568Z,41.01
2019-04-25T06:53:24.165Z,40.92
2019-04-25T06:54:22.814Z,41.49
2019-04-25T06:55:22.875Z,41.78
2019-04-25T06:56:22.509Z,40.72
2019-04-25T06:57:22.162Z,41.78
2019-04-25T06:58:23.300Z,39.69
2019-04-25T06:59:24.246Z,39.31
2019-04-25T07:00:24.234Z,39.12
2019-04-25T07:01:24.652Z,37.88
2019-04-25T07:02:23.434Z,38.26
2019-04-25T07:03:22.798Z,38.54
2019-04-25T07:04:22.769Z,38.17
2019-04-25T07:05:31.022Z,38.45
2019-04-25T07:06:23.299Z,39.12
2019-04-25T07:07:24.274Z,38.18
2019-04-25T07:08:23.741Z,36.94
2019-04-25T07:09:24.149Z,36.75
2019-04-25T07:10:23.221Z,36.55
2019-04-25T07:11:21.692Z,36.94
2019-04-25T07:12:26.262Z,37.32
2019-04-25T07:13:21.662Z,36.84
2019-04-25T07:14:21.652Z,36.75
2019-04-25T07:15:21.637Z,37.41
2019-04-25T07:16:23.190Z,37.53
2019-04-25T07:17:21.616Z,36.67
2019-04-25T07:18:21.604Z,36.38
2019-04-25T07:19:21.595Z,35.42
2019-04-25T07:20:21.581Z,35.81
2019-04-25T07:21:23.135Z,35.71
2019-04-25T07:22:21.571Z,37.34
2019-04-25T07:23:21.550Z,36.86
2019-04-25T07:24:21.534Z,36.19
2019-04-25T07:25:21.527Z,35.24
2019-04-25T07:26:21.510Z,35.61
2019-04-25T07:27:21.503Z,36.00
2019-04-25T07:28:24.356Z,36.77
2019-04-25T07:29:21.481Z,36.67
2019-04-25T07:30:31.939Z,35.04
2019-04-25T07:31:21.461Z,34.29
2019-04-25T07:32:21.445Z,35.53
2019-04-25T07:33:21.434Z,35.92
2019-04-25T07:34:21.424Z,34.67
2019-04-25T07:35:21.402Z,34.58
2019-04-25T07:36:23.153Z,34.29
2019-04-25T07:37:21.384Z,34.48
2019-04-25T07:38:21.378Z,34.22
2019-04-25T07:39:21.374Z,34.29
2019-04-25T07:40:21.358Z,34.10
2019-04-25T07:41:21.340Z,34.20
2019-04-25T07:42:21.335Z,33.24
2019-04-25T07:43:21.333Z,34.10
2019-04-25T07:44:33.870Z,34.20
2019-04-25T07:45:21.299Z,33.24
2019-04-25T07:46:21.293Z,33.24
2019-04-25T07:47:21.298Z,33.91
2019-04-25T07:48:22.725Z,34.48
2019-04-25T07:49:21.253Z,33.14
2019-04-25T07:50:21.253Z,33.33
2019-04-25T07:51:21.236Z,33.14
2019-04-25T07:52:21.228Z,33.35
2019-04-25T07:53:21.211Z,34.22
2019-04-25T07:54:21.194Z,33.92
2019-04-25T07:55:21.195Z,33.25
2019-04-25T07:56:21.359Z,32.59
2019-04-25T07:57:21.173Z,32.78
2019-04-25T07:58:21.164Z,32.59
2019-04-25T07:59:21.144Z,32.10
2019-04-25T08:00:21.136Z,32.10
2019-04-25T08:01:21.124Z,32.29
2019-04-25T08:02:21.114Z,32.20
2019-04-25T08:03:21.106Z,32.59
2019-04-25T08:04:21.094Z,32.39
2019-04-25T08:05:21.086Z,33.25
2019-04-25T08:06:22.648Z,32.68
2019-04-25T08:07:21.061Z,32.68
2019-04-25T08:08:21.051Z,32.68
2019-04-25T08:09:21.043Z,32.87
2019-04-25T08:10:21.025Z,31.74
2019-04-25T08:11:21.015Z,30.78
2019-04-25T08:12:21.015Z,30.01
2019-04-25T08:13:20.996Z,31.35
2019-04-25T08:14:20.987Z,31.74
2019-04-25T08:15:20.975Z,32.03
2019-04-25T08:16:20.966Z,31.16
2019-04-25T08:17:20.952Z,32.79
2019-04-25T08:18:23.401Z,33.08
2019-04-25T08:19:20.940Z,34.33
2019-04-25T08:20:20.926Z,32.79
2019-04-25T08:21:20.916Z,30.68
2019-04-25T08:22:20.907Z,30.20
2019-04-25T08:23:20.893Z,30.68
2019-04-25T08:24:20.881Z,31.16
2019-04-25T08:25:20.871Z,31.07
2019-04-25T08:26:20.867Z,31.35
2019-04-25T08:27:20.850Z,31.07
2019-04-25T08:28:20.838Z,31.84
2019-04-25T08:29:22.910Z,32.51
2019-04-25T08:30:20.816Z,34.61
2019-04-25T08:31:20.811Z,34.52
2019-04-25T08:32:20.814Z,33.08
2019-04-25T08:33:20.793Z,32.70
2019-04-25T08:34:20.778Z,32.52
2019-04-25T08:35:20.767Z,32.71
2019-04-25T08:36:20.754Z,31.46
2019-04-25T08:37:21.193Z,30.79
2019-04-25T08:38:20.737Z,29.44
2019-04-25T08:39:20.735Z,30.49
2019-04-25T08:40:20.720Z,30.79
2019-04-25T08:41:21.644Z,30.89
2019-04-25T08:42:20.694Z,32.81
2019-04-25T08:43:20.686Z,32.71
2019-04-25T08:44:20.682Z,31.95
2019-04-25T08:45:20.666Z,31.20
2019-04-25T08:46:20.656Z,31.29
2019-04-25T08:47:20.659Z,30.51
2019-04-25T08:48:20.635Z,30.32
2019-04-25T08:49:20.625Z,30.02
2019-04-25T08:50:28.951Z,30.79
2019-04-25T08:51:20.605Z,31.18
2019-04-25T08:52:20.599Z,31.08
2019-04-25T08:53:20.587Z,29.66
2019-04-25T08:54:20.575Z,30.52
2019-04-25T08:55:20.562Z,29.85
2019-04-25T08:56:20.552Z,30.60
2019-04-25T08:57:20.552Z,30.02
2019-04-25T08:58:20.536Z,29.93
2019-04-25T08:59:32.720Z,28.78
2019-04-25T09:00:20.525Z,29.93
2019-04-25T09:01:20.505Z,30.79
2019-04-25T09:02:20.502Z,31.27
2019-04-25T09:03:20.491Z,31.27
2019-04-25T09:04:20.474Z,31.38
2019-04-25T09:05:20.464Z,31.48
2019-04-25T09:06:20.462Z,30.52
2019-04-25T09:07:20.467Z,29.66
2019-04-25T09:08:20.442Z,30.81
2019-04-25T09:09:20.425Z,31.00
2019-04-25T09:10:20.421Z,31.67
2019-04-25T09:11:20.409Z,28.60
2019-04-25T09:12:20.399Z,28.50
2019-04-25T09:13:20.389Z,28.79
2019-04-25T09:14:20.396Z,28.22
2019-04-25T09:15:20.381Z,29.56
2019-04-25T09:16:20.362Z,30.33
2019-04-25T09:17:20.347Z,30.62
2019-04-25T09:18:20.340Z,31.38
2019-04-25T09:19:20.328Z,29.56
2019-04-25T09:20:20.326Z,28.41
2019-04-25T09:21:20.312Z,28.60
2019-04-25T09:22:20.302Z,28.91
2019-04-25T09:23:20.291Z,28.71
2019-04-25T09:24:20.284Z,28.23
2019-04-25T09:25:20.274Z,28.12
2019-04-25T09:26:20.262Z,27.45
2019-04-25T09:27:20.253Z,27.55
2019-04-25T09:28:20.240Z,27.55
2019-04-25T09:29:20.227Z,28.50
2019-04-25T09:30:20.235Z,30.14
2019-04-25T09:31:20.222Z,29.67
2019-04-25T09:32:20.202Z,28.23
2019-04-25T09:33:20.202Z,27.08
2019-04-25T09:34:20.183Z,28.42
2019-04-25T09:35:20.278Z,27.94
2019-04-25T09:36:20.165Z,26.60
2019-04-25T09:37:20.164Z,26.70
2019-04-25T09:38:20.145Z,27.08
2019-04-25T09:39:20.136Z,27.95
2019-04-25T09:40:20.133Z,28.34
2019-04-25T09:41:20.119Z,28.34
2019-04-25T09:42:20.105Z,27.09
2019-04-25T09:43:20.098Z,27.28
2019-04-25T09:44:20.088Z,27.58
2019-04-25T09:45:20.078Z,27.38
2019-04-25T09:46:20.072Z,29.49
2019-04-25T09:47:20.058Z,29.79
2019-04-25T09:48:20.047Z,28.34
2019-04-25T09:49:20.033Z,28.15
2019-04-25T09:50:20.036Z,28.44
2019-04-25T09:51:20.029Z,29.51
2019-04-25T09:52:20.019Z,27.01
2019-04-25T09:53:23.548Z,26.43
2019-04-25T09:54:19.999Z,26.43
2019-04-25T09:55:19.985Z,27.59
2019-04-25T09:56:19.981Z,26.42
2019-04-25T09:57:19.965Z,26.23
2019-04-25T09:58:19.955Z,27.09
2019-04-25T09:59:27.377Z,27.38
2019-04-25T10:00:19.942Z,27.38
2019-04-25T10:01:19.928Z,27.38
2019-04-25T10:02:19.924Z,27.09
2019-04-25T10:03:19.906Z,26.98
2019-04-25T10:04:22.731Z,27.38
2019-04-25T10:05:19.892Z,27.95
2019-04-25T10:06:19.884Z,28.72
2019-04-25T10:07:19.883Z,28.53
2019-04-25T10:08:19.871Z,27.38
2019-04-25T10:09:19.860Z,26.90
2019-04-25T10:10:19.846Z,27.95
2019-04-25T10:11:19.842Z,29.99
2019-04-25T10:12:19.833Z,29.99
2019-04-25T10:13:19.823Z,29.80
2019-04-25T10:14:19.809Z,29.51
2019-04-25T10:15:19.804Z,29.41
2019-04-25T10:16:19.799Z,29.72
2019-04-25T10:17:19.788Z,29.91
2019-04-25T10:18:19.778Z,29.72
2019-04-25T10:19:19.764Z,31.56
2019-04-25T10:20:19.765Z,29.44
2019-04-25T10:21:19.748Z,30.02
2019-04-25T10:22:19.742Z,30.40
2019-04-25T10:23:19.731Z,28.19
2019-04-25T10:24:19.721Z,27.02
2019-04-25T10:25:19.711Z,27.69
2019-04-25T10:26:19.708Z,27.59
2019-04-25T10:27:19.701Z,27.59
2019-04-25T10:28:19.687Z,27.30
2019-04-25T10:29:19.680Z,28.34
2019-04-25T10:30:23.402Z,28.25
2019-04-25T10:31:19.662Z,28.63
2019-04-25T10:32:19.652Z,28.25
2019-04-25T10:33:19.638Z,29.02
2019-04-25T10:34:19.632Z,29.40
2019-04-25T10:35:19.623Z,29.40
2019-04-25T10:36:19.615Z,29.49
2019-04-25T10:37:19.608Z,29.59
2019-04-25T10:38:19.598Z,28.72
2019-04-25T10:39:19.629Z,29.11
2019-04-25T10:40:19.585Z,29.02
2019-04-25T10:41:19.570Z,29.59
2019-04-25T10:42:19.569Z,28.91
2019-04-25T10:43:21.702Z,28.33
2019-04-25T10:44:19.543Z,28.42
2019-04-25T10:45:23.276Z,29.10
2019-04-25T10:46:19.523Z,29.38
2019-04-25T10:47:19.510Z,29.00
2019-04-25T10:48:19.504Z,29.00
2019-04-25T10:49:19.512Z,29.67
2019-04-25T10:50:19.487Z,29.86
2019-04-25T10:51:19.482Z,28.60
2019-04-25T10:52:19.469Z,29.67
2019-04-25T10:53:19.457Z,29.38
2019-04-25T10:54:19.447Z,29.48
2019-04-25T10:55:19.448Z,29.58
2019-04-25T10:56:19.432Z,29.96
2019-04-25T10:57:19.422Z,29.77
2019-04-25T10:58:19.406Z,29.08
2019-04-25T10:59:19.413Z,28.70
2019-04-25T11:00:19.396Z,28.70
2019-04-25T11:01:19.385Z,28.89
2019-04-25T11:02:19.381Z,29.47
2019-04-25T11:03:19.366Z,29.75
2019-04-25T11:04:19.360Z,30.54
2019-04-25T11:05:19.344Z,30.71
2019-04-25T11:06:19.334Z,29.75
2019-04-25T11:07:19.328Z,30.14
2019-04-25T11:08:19.323Z,30.81
2019-04-25T11:09:19.306Z,30.73
2019-04-25T11:10:19.300Z,29.58
2019-04-25T11:11:19.291Z,29.17
2019-04-25T11:12:19.281Z,29.37
2019-04-25T11:13:19.274Z,30.35
2019-04-25T11:14:19.263Z,29.77
2019-04-25T11:15:19.252Z,30.44
2019-04-25T11:16:19.239Z,29.75
2019-04-25T11:17:19.235Z,29.27
2019-04-25T11:18:19.221Z,29.27
2019-04-25T11:19:19.214Z,29.48
2019-04-25T11:20:19.206Z,29.67
2019-04-25T11:21:19.200Z,29.86
2019-04-25T11:22:19.182Z,29.77
2019-04-25T11:23:19.173Z,30.15
2019-04-25T11:24:19.168Z,29.67
2019-04-25T11:25:19.152Z,29.48
2019-04-25T11:26:19.147Z,29.38
2019-04-25T11:27:19.159Z,30.63
2019-04-25T11:28:19.125Z,31.02
2019-04-25T11:29:19.193Z,30.63
2019-04-25T11:30:19.109Z,30.05
2019-04-25T11:31:19.100Z,29.48
2019-04-25T11:32:20.008Z,29.28
2019-04-25T11:33:19.090Z,28.61
2019-04-25T11:34:19.073Z,28.81
2019-04-25T11:35:19.064Z,29.48
2019-04-25T11:36:19.054Z,29.38
2019-04-25T11:37:19.036Z,29.10
2019-04-25T11:38:19.024Z,30.35
2019-04-25T11:39:19.024Z,29.67
2019-04-25T11:40:19.004Z,29.10
2019-04-25T11:41:19.000Z,29.10
2019-04-25T11:42:18.990Z,29.10
2019-04-25T11:43:18.981Z,29.48
2019-04-25T11:44:18.971Z,29.48
2019-04-25T11:45:18.981Z,29.48
2019-04-25T11:46:18.952Z,29.96
2019-04-25T11:47:18.947Z,31.21
2019-04-25T11:48:18.939Z,31.21
2019-04-25T11:49:18.924Z,30.35
2019-04-25T11:50:18.915Z,30.15
2019-04-25T11:51:18.922Z,30.44
2019-04-25T11:52:27.369Z,31.30
2019-04-25T11:53:20.132Z,30.05
2019-04-25T11:54:18.880Z,29.38
2019-04-25T11:55:18.870Z,29.49
2019-04-25T11:56:18.856Z,29.97
2019-04-25T11:57:18.850Z,30.54
2019-04-25T11:58:18.837Z,30.17
2019-04-25T11:59:18.833Z,29.30
2019-04-25T12:00:22.123Z,29.69
2019-04-25T12:01:18.811Z,30.46
2019-04-25T12:02:18.800Z,30.84
2019-04-25T12:03:18.798Z,30.17
2019-04-25T12:04:18.783Z,30.36
2019-04-25T12:05:18.772Z,30.36
2019-04-25T12:06:18.760Z,30.65
2019-04-25T12:07:18.759Z,30.74
2019-04-25T12:08:18.746Z,30.17
2019-04-25T12:09:18.736Z,28.72
2019-04-25T12:10:18.725Z,28.44
2019-04-25T12:11:18.765Z,30.07
2019-04-25T12:12:18.722Z,30.74
2019-04-25T12:13:18.701Z,31.70
2019-04-25T12:14:18.682Z,31.61
2019-04-25T12:15:18.679Z,31.32
2019-04-25T12:16:18.672Z,29.59
2019-04-25T12:17:18.655Z,28.63
2019-04-25T12:18:18.648Z,28.92
2019-04-25T12:19:18.644Z,29.97
2019-04-25T12:20:18.628Z,30.36
2019-04-25T12:21:18.620Z,28.84
2019-04-25T12:22:18.616Z,29.22
2019-04-25T12:23:18.605Z,29.61
2019-04-25T12:24:18.595Z,30.66
2019-04-25T12:25:18.601Z,29.61
2019-04-25T12:26:18.581Z,30.47
2019-04-25T12:27:18.564Z,31.62
2019-04-25T12:28:18.556Z,30.66
2019-04-25T12:29:18.544Z,31.82
2019-04-25T12:30:18.536Z,32.21
2019-04-25T12:31:18.532Z,31.54
2019-04-25T12:32:18.523Z,30.58
2019-04-25T12:33:21.475Z,29.52
2019-04-25T12:34:18.501Z,29.51
2019-04-25T12:35:18.492Z,30.08
2019-04-25T12:36:18.482Z,31.15
2019-04-25T12:37:18.477Z,30.08
2019-04-25T12:38:20.370Z,29.61
2019-04-25T12:39:18.459Z,29.99
2019-04-25T12:40:18.446Z,29.70
2019-04-25T12:41:18.439Z,28.64
2019-04-25T12:42:18.428Z,29.99
2019-04-25T12:43:18.424Z,29.99
2019-04-25T12:44:18.405Z,30.38
2019-04-25T12:45:18.401Z,31.62
2019-04-25T12:46:18.390Z,31.53
2019-04-25T12:47:18.399Z,31.43
2019-04-25T12:48:18.370Z,31.41
2019-04-25T12:49:18.366Z,31.15
2019-04-25T12:50:18.811Z,32.39
2019-04-25T12:51:18.343Z,32.59
2019-04-25T12:52:18.340Z,30.85